Latest Weather Observations for Kalgoorlie-Boulder

IDW60801

Issued at 11:33 am WST Friday 19 December 2014 (issued every 30 minutes, with the page automatically refreshed every 10 minutes)

About weather observations | Map of weather stations | Latest weather observations for WA | Other Formats
Station Details ID: 012038 Name: KALGOORLIE-BOULDER AIRPORT Lat: -30.78 Lon: 121.45 Height: 365.3 m
Data from the previous 72 hours. | See also: Recent months at Kalgoorlie-Boulder
Date/Time
WST
Temp
°C
App
Temp
°C
Dew
Point
Rel
Hum
%
Delta-T
°C
Wind Press
QNH
hPa
Press
MSL
hPa
Rain
since 9 am
mm
Dir
 
Spd
km/h
Gust
km/h
Spd
kts
Gust
kts
19/11:30am 31.3 26.3 6.6 21 13.5 NE 22 30 12 16 1016.4 - 0.0
19/11:00am 30.7 26.1 6.7 22 13.1 ENE 20 30 11 16 1016.9 - 0.0
19/10:30am 29.5 25.1 7.2 24 12.2 ENE 20 28 11 15 1017.4 - 0.0
19/10:00am 27.6 23.2 7.3 27 11.0 E 20 33 11 18 1017.9 - 0.0
19/09:30am 27.2 23.0 7.5 28 10.7 ENE 19 28 10 15 1018.3 - 0.0
19/09:00am 25.5 21.3 8.2 33 9.4 ENE 20 28 11 15 1018.7 1016.8 0.0
19/08:30am 24.0 19.9 8.0 36 8.6 NE 19 26 10 14 1019.0 - 0.0
19/08:00am 23.3 19.3 8.2 38 8.1 ENE 19 26 10 14 1019.1 - 0.0
19/07:30am 21.5 17.0 8.4 43 7.0 ENE 22 32 12 17 1019.1 - 0.0
19/07:00am 20.9 16.7 8.3 44 6.7 ENE 20 32 11 17 1018.9 - 0.0
19/06:30am 19.9 15.5 7.6 45 6.4 E 20 28 11 15 1018.6 - 0.0
19/06:00am 18.9 14.6 7.2 46 6.0 E 19 24 10 13 1018.4 1016.5 0.0
19/05:30am 18.4 14.5 7.3 48 5.7 E 17 24 9 13 1018.1 - 0.0
19/05:00am 18.0 14.1 7.3 49 5.5 E 17 24 9 13 1017.6 - 0.0
19/04:30am 18.3 13.9 7.4 49 5.6 E 20 32 11 17 1017.3 - 0.0
19/04:00am 18.8 13.7 7.8 48 5.7 E 24 32 13 17 1017.0 - 0.0
19/03:30am 19.2 14.2 7.9 48 5.9 E 24 33 13 18 1016.8 - 0.0
19/03:00am 19.8 14.3 7.7 45 6.3 E 26 39 14 21 1016.8 1014.9 0.0
19/02:30am 20.3 14.8 7.7 44 6.6 E 26 37 14 20 1016.7 - 0.0
19/02:00am 20.8 15.6 7.4 42 7.0 E 24 32 13 17 1016.6 - 0.0
19/01:30am 21.6 15.4 6.2 36 7.9 E 28 37 15 20 1016.5 - 0.0
19/01:00am 22.1 16.2 4.1 30 8.9 ESE 24 32 13 17 1016.6 - 0.0
19/12:30am 23.0 15.9 1.5 24 10.2 E 28 39 15 21 1016.6 - 0.0
19/12:00am 23.9 17.1 -2.1 17 11.6 E 24 33 13 18 1016.4 1014.5 0.0
 
Date/Time
WST
Temp
°C
App
Temp
°C
Dew
Point
Rel
Hum
%
Delta-T
°C
Wind Press
QNH
hPa
Press
MSL
hPa
Rain
since 9 am
mm
Dir
 
Spd
km/h
Gust
km/h
Spd
kts
Gust
kts
18/11:30pm 24.5 18.5 -2.9 16 12.1 E 19 32 10 17 1016.3 - 0.0
18/11:00pm 22.9 17.5 -4.1 16 11.5 ESE 15 19 8 10 1016.4 - 0.0
18/10:30pm 22.1 17.1 -4.7 16 11.2 SE 13 17 7 9 1016.4 - 0.0
18/10:00pm 23.1 18.4 -5.1 15 11.8 SE 11 15 6 8 1016.3 - 0.0
18/09:30pm 23.5 18.8 -5.0 14 12.0 SE 11 13 6 7 1016.2 - 0.0
18/09:00pm 23.7 19.5 -3.9 15 11.9 SE 9 13 5 7 1015.9 1014.0 0.0
18/08:30pm 24.2 20.0 -4.1 15 12.2 SE 9 15 5 8 1015.6 - 0.0
18/08:00pm 26.1 21.4 -5.0 12 13.4 SSE 11 15 6 8 1015.4 - 0.0
18/07:30pm 27.1 22.4 -4.7 12 13.9 SSE 11 15 6 8 1015.1 - 0.0
18/07:00pm 28.4 23.5 -3.5 12 14.4 SE 13 20 7 11 1014.8 - 0.0
18/06:30pm 29.4 23.0 -5.3 10 15.3 SE 20 26 11 14 1014.4 - 0.0
18/06:00pm 30.2 24.5 -3.8 11 15.5 SE 17 26 9 14 1014.3 1012.4 0.0
18/05:30pm 30.6 24.3 -4.2 10 15.8 SE 20 28 11 15 1014.0 - 0.0
18/05:00pm 30.7 24.7 -2.8 11 15.6 SSE 19 30 10 16 1013.9 - 0.0
18/04:30pm 31.0 26.2 -2.5 11 15.7 SE 13 28 7 15 1013.8 - 0.0
18/04:00pm 30.7 25.8 -0.5 13 15.1 SE 15 22 8 12 1014.0 - 0.0
18/03:30pm 30.6 26.2 0.1 14 14.9 SSE 13 22 7 12 1014.3 - 0.0
18/03:00pm 30.7 24.1 -0.5 13 15.1 ESE 24 30 13 16 1014.5 1012.6 0.0
18/02:30pm 30.0 24.3 0.7 15 14.4 ESE 20 28 11 15 1015.0 - 0.0
18/02:00pm 28.8 26.1 2.6 18 13.2 NNE 6 9 3 5 1015.4 - 0.0
18/01:30pm 28.7 23.4 1.6 17 13.4 SE 19 26 10 14 1015.8 - 0.0
18/01:00pm 28.8 24.6 1.9 17 13.4 S 13 24 7 13 1016.2 - 0.0
18/12:30pm 27.7 22.5 2.4 19 12.6 ESE 19 28 10 15 1016.4 - 0.0
18/12:00pm 26.6 21.5 3.3 22 11.7 SSE 19 30 10 16 1016.7 1014.8 0.0
18/11:30am 25.2 20.3 4.3 26 10.6 E 19 32 10 17 1017.3 - 0.0
18/11:00am 24.6 19.4 3.8 26 10.4 SE 20 32 11 17 1017.7 - 0.0
18/10:30am 23.4 18.3 4.2 28 9.6 ESE 20 32 11 17 1017.9 - 0.0
18/10:00am 22.7 17.0 4.8 31 9.0 E 24 26 13 14 1018.0 - 0.0
18/09:30am 21.8 17.0 4.8 33 8.5 ESE 19 32 10 17 1018.2 - 0.0
18/09:00am 20.7 15.9 5.4 36 7.7 E 20 32 11 17 1018.2 1016.3 0.0
18/08:30am 19.5 14.9 6.3 42 6.7 E 20 28 11 15 1018.4 - 0.0
18/08:00am 19.2 14.6 6.6 44 6.4 E 20 28 11 15 1018.4 - 0.0
18/07:30am 18.1 13.2 7.1 48 5.6 E 22 30 12 16 1018.3 - 0.0
18/07:00am 17.1 12.8 7.8 54 4.8 ESE 20 32 11 17 1018.0 - 0.0
18/06:30am 16.5 12.3 8.2 58 4.3 ESE 20 28 11 15 1017.8 - 0.0
18/06:00am 15.8 12.0 7.5 58 4.2 ESE 17 22 9 12 1017.4 1015.5 0.0
18/05:30am 14.7 11.1 6.6 58 4.0 ESE 15 17 8 9 1017.0 - 0.0
18/05:00am 14.1 10.8 6.6 60 3.7 SE 13 17 7 9 1016.8 - 0.0
18/04:30am 14.2 9.8 6.7 60 3.7 SE 19 24 10 13 1016.4 - 0.0
18/04:00am 14.6 10.2 6.5 58 4.0 SE 19 24 10 13 1016.1 - 0.0
18/03:30am 15.1 10.5 6.4 56 4.3 SE 20 30 11 16 1015.8 - 0.0
18/03:00am 15.5 10.9 6.4 54 4.5 SE 20 28 11 15 1015.4 1013.5 0.0
18/02:30am 16.0 10.6 6.3 52 4.8 SE 24 33 13 18 1015.2 - 0.0
18/02:00am 16.2 10.5 6.6 53 4.8 SE 26 35 14 19 1014.9 - 0.0
18/01:30am 16.4 11.1 6.9 53 4.8 SE 24 37 13 20 1014.7 - 0.0
18/01:00am 17.0 11.0 6.9 51 5.1 SSE 28 39 15 21 1014.3 - 0.0
18/12:30am 17.9 12.3 7.1 49 5.5 SE 26 37 14 20 1014.0 - 0.0
18/12:00am 18.7 12.7 7.0 46 6.0 SE 28 46 15 25 1013.8 1011.9 0.0
 
Date/Time
WST
Temp
°C
App
Temp
°C
Dew
Point
Rel
Hum
%
Delta-T
°C
Wind Press
QNH
hPa
Press
MSL
hPa
Rain
since 9 am
mm
Dir
 
Spd
km/h
Gust
km/h
Spd
kts
Gust
kts
17/11:30pm 19.4 13.3 6.7 43 6.5 SE 28 37 15 20 1013.6 - 0.0
17/11:00pm 20.2 14.0 6.3 40 7.1 SSE 28 43 15 23 1013.2 - 0.0
17/10:30pm 21.3 15.0 5.5 35 8.0 SSE 28 48 15 26 1012.8 - 0.0
17/10:00pm 22.2 15.4 5.0 32 8.7 SSE 30 48 16 26 1012.4 - 0.0
17/09:30pm 23.8 16.7 3.7 27 10.0 SSE 30 52 16 28 1011.6 - 0.0
17/09:00pm 25.2 18.5 1.7 21 11.4 SSE 26 43 14 23 1010.9 1009.0 0.0
17/08:30pm 26.0 20.4 1.2 20 12.0 SSE 20 33 11 18 1010.2 - 0.0
17/08:00pm 26.7 20.3 0.8 18 12.5 SSE 24 35 13 19 1009.9 - 0.0
17/07:30pm 27.6 21.0 -0.4 16 13.3 SE 24 39 13 21 1009.5 - 0.0
17/07:00pm 28.7 21.8 -2.4 13 14.4 S 24 32 13 17 1008.9 - 0.0
17/06:30pm 30.1 23.3 -5.0 10 15.7 S 22 30 12 16 1008.3 - 0.0
17/06:00pm 31.1 24.3 -5.1 9 16.3 S 22 35 12 19 1007.8 1005.9 0.0
17/05:30pm 32.1 25.8 -5.8 8 16.9 SSW 19 30 10 16 1007.1 - 0.0
17/05:00pm 32.1 27.8 -2.0 11 16.2 S 11 20 6 11 1006.7 - 0.0
17/04:30pm 32.1 25.1 -0.6 12 15.9 ESE 26 35 14 19 1006.3 - 0.0
17/04:00pm 32.4 26.3 0.6 13 15.9 SE 22 37 12 20 1006.2 - 0.0
17/03:30pm 32.1 26.1 1.1 14 15.6 SE 22 32 12 17 1006.3 - 0.0
17/03:00pm 32.7 27.6 1.0 13 16.0 S 17 32 9 17 1006.4 1004.4 0.0
17/02:30pm 32.8 27.6 -2.4 10 16.7 SSE 15 28 8 15 1006.5 - 0.0
17/02:00pm 32.5 26.0 -2.3 10 16.5 S 22 33 12 18 1006.6 - 0.0
17/01:30pm 32.3 29.0 0.4 13 15.8 S 7 22 4 12 1006.8 - 0.0
17/01:00pm 31.6 27.3 0.7 14 15.4 W 13 24 7 13 1006.9 - 0.0
17/12:30pm 31.3 27.9 1.6 15 15.0 SSE 9 15 5 8 1007.3 - 0.0
17/12:00pm 30.5 25.2 1.7 16 14.5 S 19 28 10 15 1007.5 1005.5 0.0
17/11:30am 29.4 25.5 3.3 19 13.4 S 13 24 7 13 1007.9 - 0.0
17/11:00am 29.3 25.8 3.4 19 13.3 SW 11 20 6 11 1008.1 - 0.0
17/10:30am 28.3 23.1 2.4 19 13.0 SW 19 24 10 13 1008.3 - 0.0
17/10:00am 27.8 25.1 3.5 21 12.4 WNW 7 13 4 7 1008.5 - 0.0
17/09:30am 25.2 22.4 5.3 27 10.3 ESE 9 17 5 9 1008.6 - 0.0
17/09:00am 24.0 21.0 6.2 31 9.3 ESE 11 24 6 13 1008.9 1006.9 0.0
17/08:30am 22.2 18.7 5.6 34 8.5 SE 13 19 7 10 1009.3 - 0.0
17/08:00am 20.9 17.7 6.8 40 7.3 ESE 13 22 7 12 1009.4 - 0.0
17/07:30am 20.1 16.5 6.7 41 6.9 SE 15 20 8 11 1009.5 - 0.0
17/07:00am 18.8 14.9 6.9 46 6.1 SE 17 24 9 13 1009.5 - 0.0
17/06:30am 18.1 13.6 6.9 48 5.7 SE 20 24 11 13 1009.3 - 0.0
17/06:00am 17.1 12.6 7.1 51 5.1 SE 20 24 11 13 1009.0 1007.0 0.0
17/05:30am 16.4 12.1 6.9 53 4.8 SE 19 26 10 14 1008.7 - 0.0
17/05:00am 15.9 12.7 7.0 55 4.5 SSE 13 20 7 11 1008.5 - 0.0
17/04:30am 16.2 13.0 6.9 54 4.7 SSE 13 19 7 10 1008.2 - 0.0
17/04:00am 16.7 13.1 6.8 52 5.0 SSE 15 20 8 11 1007.9 - 0.0
17/03:30am 17.5 13.8 6.1 47 5.7 SSE 15 22 8 12 1007.7 - 0.0
17/03:00am 18.1 13.8 5.1 42 6.4 SE 17 22 9 12 1007.5 1005.5 0.0
17/02:30am 18.8 14.1 0.8 30 8.2 SSE 15 20 8 11 1007.5 - 0.0
17/02:00am 18.3 13.8 -0.2 28 8.2 S 13 17 7 9 1007.3 - 0.0
17/01:30am 19.3 14.4 -0.8 26 8.9 S 15 20 8 11 1007.2 - 0.0
17/01:00am 20.2 17.0 0.9 27 8.9 SSE 7 9 4 5 1006.8 - 0.0
17/12:30am 21.1 17.4 0.1 24 9.6 SE 9 13 5 7 1006.7 - 0.0
17/12:00am 21.5 17.4 -0.2 23 9.9 SE 11 13 6 7 1007.0 1005.0 0.0
 
Date/Time
WST
Temp
°C
App
Temp
°C
Dew
Point
Rel
Hum
%
Delta-T
°C
Wind Press
QNH
hPa
Press
MSL
hPa
Rain
since 9 am
mm
Dir
 
Spd
km/h
Gust
km/h
Spd
kts
Gust
kts
16/11:30pm 22.0 19.1 1.5 25 9.7 SE 6 9 3 5 1007.4 - 0.0
16/11:00pm 23.0 18.5 -0.6 21 10.8 SE 13 17 7 9 1007.5 - 0.0
16/10:30pm 24.8 19.9 -0.6 18 11.8 ENE 15 22 8 12 1007.7 - 0.0
16/10:00pm 25.0 20.5 -0.2 19 11.8 E 13 19 7 10 1008.0 - 0.0
16/09:30pm 25.0 21.0 0.6 20 11.6 E 11 17 6 9 1008.3 - 0.0
16/09:00pm 25.5 19.9 -0.3 18 12.1 E 19 20 10 11 1008.3 1006.4 0.0
16/08:30pm 24.8 20.7 2.0 22 11.1 ESE 13 17 7 9 1008.2 - 0.0
16/08:00pm 25.0 22.2 3.4 24 10.8 E 7 9 4 5 1008.2 - 0.0
16/07:30pm 26.7 24.0 3.7 22 11.7 ENE 7 9 4 5 1008.4 - 0.0
16/07:00pm 27.3 25.8 4.8 23 11.7 NNE 2 6 1 3 1008.4 - 0.0
16/06:30pm 28.4 25.9 3.7 20 12.7 SSW 6 9 3 5 1008.4 - 0.0
16/06:00pm 28.8 24.8 0.5 16 13.8 NW 11 17 6 9 1008.3 1006.4 0.0
16/05:30pm 29.6 26.0 0.7 15 14.2 WNW 9 19 5 10 1008.2 - 0.0
16/05:00pm 29.1 25.1 0.4 15 14.0 NNE 11 17 6 9 1008.2 - 0.0
16/04:30pm 29.9 26.5 1.8 16 14.1 W 9 17 5 9 1008.2 - 0.0
16/04:00pm 28.8 25.0 3.8 20 12.9 NE 13 20 7 11 1008.5 - 0.0
16/03:30pm 28.7 24.8 3.2 19 13.0 NNE 13 22 7 12 1009.1 - 0.0
16/03:00pm 28.4 25.3 3.6 20 12.7 SW 9 17 5 9 1009.5 1007.5 0.0
16/02:30pm 28.5 26.3 5.1 22 12.3 W 6 11 3 6 1010.0 - 0.0
16/02:00pm 27.5 25.2 5.5 24 11.6 E 7 15 4 8 1010.4 - 0.0
16/01:30pm 26.8 23.6 5.1 25 11.3 E 11 17 6 9 1010.9 - 0.0
16/01:00pm 27.0 24.1 4.8 24 11.5 ENE 9 24 5 13 1011.2 - 0.0
16/12:30pm 25.4 21.7 4.7 26 10.6 SSW 13 19 7 10 1011.9 - 0.0
16/12:00pm 24.7 22.2 6.5 31 9.6 WSW 9 13 5 7 1012.4 1010.4 0.0

Other Formats:

Comma delimited format used in spreadsheet applications
http://www.bom.gov.au/fwo/IDW60801/IDW60801.94637.axf

JavaScript Object Notation format (JSON) in row-major order
http://www.bom.gov.au/fwo/IDW60801/IDW60801.94637.json